createdAt,value
2023-04-23T00:01:58.254Z,64.50
2023-04-23T00:04:27.464Z,64.70
2023-04-23T00:06:55.649Z,64.90
2023-04-23T00:09:23.233Z,65.00
2023-04-23T00:11:50.192Z,66.00
2023-04-23T00:14:18.328Z,65.30
2023-04-23T00:16:45.315Z,65.40
2023-04-23T00:19:13.174Z,65.80
2023-04-23T00:21:40.286Z,65.90
2023-04-23T00:24:07.397Z,66.10
2023-04-23T00:26:37.289Z,66.10
2023-04-23T00:29:03.979Z,66.30
2023-04-23T00:31:33.801Z,66.20
2023-04-23T00:34:00.498Z,66.50
2023-04-23T00:36:27.173Z,66.80
2023-04-23T00:38:53.843Z,67.00
2023-04-23T00:41:20.815Z,67.10
2023-04-23T00:43:47.703Z,67.10
2023-04-23T00:46:14.465Z,67.10
2023-04-23T00:48:41.603Z,67.00
2023-04-23T00:51:11.095Z,67.40
2023-04-23T00:53:37.807Z,67.20
2023-04-23T00:56:05.992Z,67.40
2023-04-23T00:58:33.322Z,67.80
2023-04-23T01:01:00.448Z,67.90
2023-04-23T01:03:27.404Z,67.70
2023-04-23T01:05:54.358Z,67.90
2023-04-23T01:08:23.606Z,67.90
2023-04-23T01:10:55.728Z,68.00
2023-04-23T01:13:23.790Z,68.50
2023-04-23T01:15:50.768Z,68.70
2023-04-23T01:18:18.555Z,68.60
2023-04-23T01:20:45.559Z,68.90
2023-04-23T01:23:12.393Z,69.00
2023-04-23T01:25:39.082Z,69.20
2023-04-23T01:28:06.429Z,69.60
2023-04-23T01:30:33.733Z,69.40
2023-04-23T01:33:01.626Z,69.90
2023-04-23T01:35:28.866Z,69.90
2023-04-23T01:37:56.941Z,70.20
2023-04-23T01:40:23.822Z,70.10
2023-04-23T01:42:50.721Z,70.40
2023-04-23T01:45:17.487Z,70.60
2023-04-23T01:47:45.776Z,70.90
2023-04-23T01:50:13.957Z,70.70
2023-04-23T01:52:41.163Z,70.90
2023-04-23T01:55:09.608Z,70.80
2023-04-23T01:57:36.703Z,71.10
2023-04-23T02:00:12.011Z,71.30
2023-04-23T02:02:42.291Z,71.70
2023-04-23T02:05:12.926Z,72.00
2023-04-23T02:07:41.805Z,72.70
2023-04-23T02:10:09.275Z,73.40
2023-04-23T02:12:37.015Z,73.60
2023-04-23T02:15:04.606Z,74.40
2023-04-23T02:17:31.337Z,74.90
2023-04-23T02:19:58.319Z,76.40
2023-04-23T02:22:25.390Z,79.30
2023-04-23T02:24:55.252Z,84.10
2023-04-23T02:27:22.006Z,89.40
2023-04-23T02:29:49.299Z,93.10
2023-04-23T02:32:17.515Z,97.50
2023-04-23T02:34:44.166Z,99.90
2023-04-23T02:37:13.202Z,99.90
2023-04-23T02:39:50.313Z,99.90
2023-04-23T02:42:18.538Z,99.90
2023-04-23T02:44:47.254Z,99.90
2023-04-23T02:47:13.949Z,99.90
2023-04-23T02:49:40.613Z,99.90
2023-04-23T02:52:07.306Z,99.90
2023-04-23T02:54:34.076Z,99.90
2023-04-23T02:57:00.846Z,99.90
2023-04-23T02:59:27.578Z,99.90
2023-04-23T03:01:54.402Z,99.90
2023-04-23T03:04:21.411Z,99.90
2023-04-23T03:06:48.205Z,99.90
2023-04-23T03:09:14.974Z,99.90
2023-04-23T03:11:43.199Z,99.90
2023-04-23T03:14:09.920Z,99.90
2023-04-23T03:16:37.787Z,99.90
2023-04-23T03:19:04.619Z,99.90
2023-04-23T03:21:32.960Z,99.90
2023-04-23T03:24:03.613Z,99.90
2023-04-23T03:26:32.916Z,99.90
2023-04-23T03:29:01.332Z,99.90
2023-04-23T03:31:28.030Z,99.90
2023-04-23T03:33:54.689Z,99.90
2023-04-23T03:36:21.380Z,99.90
2023-04-23T03:38:48.099Z,99.90
2023-04-23T03:41:14.855Z,99.90
2023-04-23T03:43:42.864Z,99.90
2023-04-23T03:46:10.632Z,99.90
2023-04-23T03:48:41.821Z,99.90
2023-04-23T03:51:08.556Z,99.90
2023-04-23T03:53:35.278Z,99.90
2023-04-23T03:56:01.915Z,99.90
2023-04-23T03:58:28.547Z,99.90
2023-04-23T04:00:55.229Z,99.90
2023-04-23T04:03:22.134Z,99.90
2023-04-23T04:05:50.474Z,99.90
2023-04-23T04:08:17.165Z,99.90
2023-04-23T04:10:44.082Z,99.90
2023-04-23T04:13:11.804Z,99.90
2023-04-23T04:15:39.664Z,99.90
2023-04-23T04:18:07.627Z,99.90
2023-04-23T04:20:37.025Z,99.90
2023-04-23T04:23:06.307Z,99.90
2023-04-23T04:25:33.012Z,99.90
2023-04-23T04:27:59.674Z,99.90
2023-04-23T04:30:26.347Z,99.90
2023-04-23T04:32:53.106Z,99.90
2023-04-23T04:35:19.780Z,99.90
2023-04-23T04:37:46.399Z,99.90
2023-04-23T04:40:13.096Z,99.90
2023-04-23T04:42:39.768Z,99.90
2023-04-23T04:45:07.011Z,99.90
2023-04-23T04:47:33.736Z,99.90
2023-04-23T04:50:00.418Z,99.90
2023-04-23T04:52:28.119Z,99.90
2023-04-23T04:54:54.773Z,99.90
2023-04-23T04:57:21.460Z,99.90
2023-04-23T04:59:49.188Z,99.90
2023-04-23T05:02:17.159Z,99.90
2023-04-23T05:04:48.666Z,99.90
2023-04-23T05:07:18.628Z,99.90
2023-04-23T05:09:47.602Z,99.90
2023-04-23T05:12:14.294Z,99.90
2023-04-23T05:14:41.201Z,99.90
2023-04-23T05:17:08.095Z,99.90
2023-04-23T05:19:34.786Z,99.90
2023-04-23T05:22:01.588Z,99.90
2023-04-23T05:24:28.286Z,99.90
2023-04-23T05:26:55.056Z,99.90
2023-04-23T05:29:21.736Z,99.90
2023-04-23T05:31:49.899Z,99.90
2023-04-23T05:34:16.708Z,99.90
2023-04-23T05:36:44.899Z,99.90
2023-04-23T05:39:12.762Z,99.90
2023-04-23T05:41:44.196Z,99.90
2023-04-23T05:44:13.984Z,99.90
2023-04-23T05:46:40.672Z,99.90
2023-04-23T05:49:11.072Z,99.90
2023-04-23T05:51:37.811Z,99.90
2023-04-23T05:54:04.625Z,99.90
2023-04-23T05:56:31.296Z,99.90
2023-04-23T05:58:57.924Z,99.90
2023-04-23T06:01:24.738Z,99.90
2023-04-23T06:03:51.659Z,99.90
2023-04-23T06:06:19.933Z,99.90
2023-04-23T06:08:48.028Z,99.90
2023-04-23T06:11:16.233Z,99.90
2023-04-23T06:13:48.105Z,99.90
2023-04-23T06:16:15.886Z,99.90
2023-04-23T06:18:42.724Z,99.90
2023-04-23T06:21:10.747Z,99.90
2023-04-23T06:23:37.448Z,99.90
2023-04-23T06:26:04.157Z,99.90
2023-04-23T06:28:30.891Z,99.90
2023-04-23T06:30:57.782Z,99.90
2023-04-23T06:33:24.542Z,99.90
2023-04-23T06:35:51.216Z,99.90
2023-04-23T06:38:17.926Z,99.90
2023-04-23T06:40:44.783Z,99.90
2023-04-23T06:43:11.411Z,99.90
2023-04-23T06:45:38.754Z,99.90
2023-04-23T06:48:05.560Z,99.90
2023-04-23T06:50:32.363Z,99.90
2023-04-23T06:52:59.137Z,99.90
2023-04-23T06:55:25.858Z,99.90
2023-04-23T06:57:53.917Z,99.90
2023-04-23T07:00:22.928Z,99.90
2023-04-23T07:02:53.329Z,99.90
2023-04-23T07:05:23.431Z,99.90
2023-04-23T07:07:52.342Z,99.90
2023-04-23T07:10:21.586Z,99.90
2023-04-23T07:12:48.486Z,99.90
2023-04-23T07:15:15.242Z,99.90
2023-04-23T07:17:42.001Z,99.90
2023-04-23T07:20:09.092Z,99.90
2023-04-23T07:22:35.820Z,99.90
2023-04-23T07:25:02.511Z,99.90
2023-04-23T07:27:29.177Z,99.90
2023-04-23T07:29:55.886Z,99.90
2023-04-23T07:32:22.661Z,99.90
2023-04-23T07:34:49.946Z,99.90
2023-04-23T07:37:17.983Z,99.90
2023-04-23T07:39:44.920Z,99.90
2023-04-23T07:42:13.575Z,99.90
2023-04-23T07:44:40.252Z,99.90
2023-04-23T07:47:07.996Z,99.90
2023-04-23T07:49:35.839Z,99.90
2023-04-23T07:52:02.551Z,99.90
2023-04-23T07:54:29.268Z,99.90
2023-04-23T07:56:55.991Z,99.90
2023-04-23T07:59:22.669Z,99.90
2023-04-23T08:01:49.316Z,99.90
2023-04-23T08:04:16.246Z,99.90
2023-04-23T08:06:43.216Z,99.90
2023-04-23T08:09:12.060Z,99.90
2023-04-23T08:11:38.736Z,99.90
2023-04-23T08:14:05.484Z,99.90
2023-04-23T08:16:32.251Z,99.90
2023-04-23T08:19:05.316Z,99.90
2023-04-23T08:21:33.777Z,99.90
2023-04-23T08:24:00.683Z,99.90
2023-04-23T08:26:27.410Z,99.90
2023-04-23T08:28:54.106Z,99.90
2023-04-23T08:31:26.273Z,99.90
2023-04-23T08:33:55.704Z,99.90
2023-04-23T08:36:24.533Z,99.90
2023-04-23T08:38:54.447Z,99.90
2023-04-23T08:41:26.203Z,99.90
2023-04-23T08:44:18.243Z,99.90
2023-04-23T08:46:46.627Z,99.90
2023-04-23T08:49:15.607Z,99.90
2023-04-23T08:51:54.616Z,99.90
2023-04-23T08:54:28.926Z,99.90
2023-04-23T08:56:59.221Z,99.90
2023-04-23T08:59:26.861Z,99.90
2023-04-23T09:01:53.999Z,99.90
2023-04-23T09:04:21.118Z,99.90
2023-04-23T09:06:49.593Z,99.90
2023-04-23T09:09:16.919Z,99.90
2023-04-23T09:11:45.179Z,99.90
2023-04-23T09:14:15.509Z,99.90
2023-04-23T09:16:44.746Z,99.90
2023-04-23T09:19:15.155Z,99.90
2023-04-23T09:21:43.589Z,99.90
2023-04-23T09:24:10.718Z,99.90
2023-04-23T09:26:47.279Z,99.90
2023-04-23T09:29:28.834Z,99.90
2023-04-23T09:32:09.419Z,99.90
2023-04-23T09:34:37.548Z,99.90
2023-04-23T09:37:06.444Z,99.90
2023-04-23T09:39:34.973Z,99.90
2023-04-23T09:42:05.813Z,99.90
2023-04-23T09:44:36.800Z,99.90
2023-04-23T09:47:08.838Z,99.90
2023-04-23T09:49:54.312Z,99.90
2023-04-23T09:52:21.150Z,99.90
2023-04-23T09:54:48.127Z,99.90
2023-04-23T09:57:16.445Z,99.90
2023-04-23T09:59:49.837Z,99.90
2023-04-23T10:02:19.263Z,99.90
2023-04-23T10:04:51.462Z,99.90
2023-04-23T10:07:20.710Z,99.90
2023-04-23T10:09:47.915Z,99.90
2023-04-23T10:12:31.395Z,99.90
2023-04-23T10:15:05.556Z,99.90
2023-04-23T10:17:35.597Z,99.90
2023-04-23T10:20:02.608Z,99.90
2023-04-23T10:22:34.518Z,99.90
2023-04-23T10:25:09.551Z,99.90
2023-04-23T10:27:51.109Z,99.90
2023-04-23T10:30:20.750Z,99.90
2023-04-23T10:32:49.152Z,99.90
2023-04-23T10:35:17.630Z,99.90
2023-04-23T10:37:46.494Z,99.90
2023-04-23T10:40:22.118Z,99.90
2023-04-23T10:43:00.047Z,99.90
2023-04-23T10:45:31.273Z,99.90
2023-04-23T10:47:59.546Z,99.90
2023-04-23T10:50:34.611Z,99.90
2023-04-23T10:53:03.864Z,99.90
2023-04-23T10:55:32.707Z,99.90
2023-04-23T10:58:07.058Z,99.90
2023-04-23T11:00:55.176Z,99.90
2023-04-23T11:03:38.779Z,99.90
2023-04-23T11:06:09.093Z,99.90
2023-04-23T11:08:36.500Z,99.90
2023-04-23T11:11:08.157Z,99.90
2023-04-23T11:13:35.216Z,99.90
2023-04-23T11:16:21.565Z,99.90
2023-04-23T11:19:08.115Z,99.90
2023-04-23T11:22:12.530Z,99.90
2023-04-23T11:24:42.213Z,99.90
2023-04-23T11:27:14.910Z,99.90
2023-04-23T11:29:47.260Z,99.90
2023-04-23T11:32:17.191Z,99.90
2023-04-23T11:34:45.907Z,99.90
2023-04-23T11:37:14.797Z,99.90
2023-04-23T11:39:43.014Z,99.90
2023-04-23T11:42:12.761Z,99.90
2023-04-23T11:44:44.012Z,99.90
2023-04-23T11:47:12.779Z,99.90
2023-04-23T11:49:44.885Z,99.90
2023-04-23T11:52:12.201Z,99.90
2023-04-23T11:54:41.557Z,99.90
2023-04-23T11:57:08.687Z,99.90
2023-04-23T11:59:35.475Z,99.90
2023-04-23T12:02:02.242Z,99.90
2023-04-23T12:04:30.564Z,99.90
2023-04-23T12:06:58.538Z,99.90
2023-04-23T12:09:27.293Z,99.90
2023-04-23T12:11:54.682Z,99.90
2023-04-23T12:14:27.076Z,99.90
2023-04-23T12:16:54.760Z,99.90
2023-04-23T12:19:31.234Z,99.90
2023-04-23T12:22:03.222Z,99.90
2023-04-23T12:24:49.878Z,99.90
2023-04-23T12:27:19.590Z,99.90
2023-04-23T12:29:47.125Z,99.90
2023-04-23T12:32:15.307Z,99.90
2023-04-23T12:34:55.569Z,99.90
2023-04-23T12:37:27.194Z,99.90
2023-04-23T12:39:54.409Z,99.90
2023-04-23T12:42:21.160Z,99.90
2023-04-23T12:44:48.141Z,99.90
2023-04-23T12:47:14.898Z,99.90
2023-04-23T12:49:51.450Z,99.90
2023-04-23T12:52:19.239Z,99.90
2023-04-23T12:54:46.817Z,99.90
2023-04-23T12:57:14.606Z,99.90
2023-04-23T12:59:41.707Z,99.90
2023-04-23T13:02:09.471Z,99.90
2023-04-23T13:04:36.807Z,99.90
2023-04-23T13:07:03.752Z,99.90
2023-04-23T13:09:30.426Z,99.90
2023-04-23T13:11:57.480Z,99.90
2023-04-23T13:14:24.295Z,99.90
2023-04-23T13:16:51.148Z,99.90
2023-04-23T13:19:17.912Z,99.90
2023-04-23T13:21:45.477Z,99.90
2023-04-23T13:24:13.316Z,99.90
2023-04-23T13:26:41.542Z,99.90
2023-04-23T13:29:09.875Z,99.90
2023-04-23T13:31:37.299Z,99.90
2023-04-23T13:34:04.007Z,99.90
2023-04-23T13:36:30.769Z,97.80
2023-04-23T13:38:57.649Z,97.60
2023-04-23T13:41:24.479Z,96.20
2023-04-23T13:43:51.340Z,95.50
2023-04-23T13:46:18.229Z,96.00
2023-04-23T13:48:46.271Z,95.80
2023-04-23T13:51:33.342Z,95.40
2023-04-23T13:54:01.943Z,96.70
2023-04-23T13:56:29.806Z,96.40
2023-04-23T13:59:11.575Z,97.30
2023-04-23T14:01:44.145Z,96.00
2023-04-23T14:04:12.360Z,96.30
2023-04-23T14:06:42.264Z,96.10
2023-04-23T14:09:09.122Z,96.10
2023-04-23T14:11:35.976Z,94.60
2023-04-23T14:14:02.961Z,94.20
2023-04-23T14:16:29.864Z,93.70
2023-04-23T14:18:56.687Z,92.40
2023-04-23T14:21:23.461Z,92.70
2023-04-23T14:23:50.507Z,92.00
2023-04-23T14:26:47.509Z,92.40
2023-04-23T14:29:43.005Z,92.00
2023-04-23T14:32:12.062Z,90.00
2023-04-23T14:34:38.988Z,90.40
2023-04-23T14:37:10.936Z,90.60
2023-04-23T14:39:37.744Z,89.40
2023-04-23T14:42:04.693Z,87.20
2023-04-23T14:44:31.742Z,87.60
2023-04-23T14:46:59.374Z,86.50
2023-04-23T14:49:26.219Z,86.40
2023-04-23T14:51:53.763Z,83.90
2023-04-23T14:54:23.996Z,84.60
2023-04-23T14:56:51.590Z,82.70
2023-04-23T14:59:18.340Z,82.20
2023-04-23T15:01:45.205Z,82.20
2023-04-23T15:04:12.355Z,82.00
2023-04-23T15:06:40.540Z,82.30
2023-04-23T15:09:07.257Z,81.40
2023-04-23T15:11:35.513Z,81.90
2023-04-23T15:14:36.405Z,82.00
2023-04-23T15:17:03.226Z,81.30
2023-04-23T15:19:29.972Z,80.90
2023-04-23T15:21:56.712Z,79.50
2023-04-23T15:24:23.965Z,80.00
2023-04-23T15:26:50.652Z,79.70
2023-04-23T15:29:19.140Z,78.20
2023-04-23T15:31:45.910Z,77.00
2023-04-23T15:34:15.200Z,75.80
2023-04-23T15:36:44.414Z,75.00
2023-04-23T15:39:11.282Z,76.50
2023-04-23T15:41:41.586Z,75.90
2023-04-23T15:44:14.182Z,76.20
2023-04-23T15:46:41.070Z,76.60
2023-04-23T15:49:07.924Z,77.40
2023-04-23T15:51:34.683Z,76.90
2023-04-23T15:54:01.407Z,75.90
2023-04-23T15:56:28.297Z,75.10
2023-04-23T15:58:55.040Z,76.10
2023-04-23T16:01:21.801Z,75.80
2023-04-23T16:04:08.021Z,75.70
2023-04-23T16:06:39.525Z,76.30
2023-04-23T16:09:06.250Z,76.10
2023-04-23T16:11:32.972Z,76.20
2023-04-23T16:13:59.695Z,78.10
2023-04-23T16:16:26.417Z,79.10
2023-04-23T16:18:53.470Z,80.20
2023-04-23T16:21:20.468Z,80.10
2023-04-23T16:23:53.224Z,79.90
2023-04-23T16:26:21.594Z,80.80
2023-04-23T16:28:52.260Z,81.80
2023-04-23T16:31:33.642Z,82.70
2023-04-23T16:34:00.839Z,82.70
2023-04-23T16:36:28.067Z,82.40
2023-04-23T16:38:54.907Z,81.40
2023-04-23T16:41:21.587Z,80.40
2023-04-23T16:43:48.398Z,79.60
2023-04-23T16:46:15.538Z,79.50
2023-04-23T16:48:43.818Z,78.30
2023-04-23T16:51:10.757Z,78.60
2023-04-23T16:53:40.340Z,78.90
2023-04-23T16:56:07.240Z,79.10
2023-04-23T16:58:34.078Z,79.10
2023-04-23T17:01:00.990Z,79.40
2023-04-23T17:03:27.923Z,80.10
2023-04-23T17:06:12.676Z,80.00
2023-04-23T17:08:40.125Z,80.40
2023-04-23T17:11:07.021Z,81.40
2023-04-23T17:13:39.820Z,81.90
2023-04-23T17:16:07.952Z,82.20
2023-04-23T17:18:34.788Z,83.00
2023-04-23T17:21:08.749Z,83.20
2023-04-23T17:23:35.417Z,83.90
2023-04-23T17:26:02.147Z,84.20
2023-04-23T17:28:28.956Z,84.20
2023-04-23T17:30:55.917Z,84.80
2023-04-23T17:33:23.131Z,85.00
2023-04-23T17:35:52.147Z,85.50
2023-04-23T17:38:22.480Z,84.60
2023-04-23T17:40:50.738Z,85.20
2023-04-23T17:43:18.545Z,84.90
2023-04-23T17:45:45.882Z,84.70
2023-04-23T17:48:13.439Z,85.80
2023-04-23T17:50:40.900Z,85.30
2023-04-23T17:53:07.857Z,85.30
2023-04-23T17:55:34.617Z,86.50
2023-04-23T17:58:01.382Z,87.40
2023-04-23T18:00:28.287Z,87.90
2023-04-23T18:02:55.119Z,87.80
2023-04-23T18:05:21.978Z,88.10
2023-04-23T18:07:49.744Z,88.80
2023-04-23T18:10:16.584Z,89.80
2023-04-23T18:12:44.956Z,90.20
2023-04-23T18:15:15.998Z,90.50
2023-04-23T18:17:43.890Z,90.70
2023-04-23T18:20:11.141Z,91.60
2023-04-23T18:22:38.103Z,91.80
2023-04-23T18:25:06.120Z,92.30
2023-04-23T18:27:34.250Z,92.70
2023-04-23T18:30:01.316Z,92.80
2023-04-23T18:32:34.521Z,93.30
2023-04-23T18:35:01.913Z,93.50
2023-04-23T18:37:37.546Z,94.00
2023-04-23T18:40:07.452Z,94.70
2023-04-23T18:42:34.386Z,95.00
2023-04-23T18:45:02.150Z,95.40
2023-04-23T18:47:33.960Z,95.80
2023-04-23T18:50:03.414Z,96.40
2023-04-23T18:52:30.159Z,97.00
2023-04-23T18:54:58.336Z,97.50
2023-04-23T18:57:27.190Z,97.80
2023-04-23T18:59:57.305Z,98.30
2023-04-23T19:02:35.290Z,99.10
2023-04-23T19:05:04.895Z,99.40
2023-04-23T19:07:34.082Z,99.90
2023-04-23T19:10:05.247Z,99.90
2023-04-23T19:12:35.330Z,99.90
2023-04-23T19:15:10.172Z,99.90
2023-04-23T19:17:40.550Z,99.90
2023-04-23T19:20:11.676Z,99.90
2023-04-23T19:22:44.952Z,99.90
2023-04-23T19:25:15.026Z,99.90
2023-04-23T19:27:43.159Z,99.90
2023-04-23T19:30:10.770Z,99.90
2023-04-23T19:32:37.885Z,99.90
2023-04-23T19:35:08.153Z,99.90
2023-04-23T19:37:34.987Z,99.90
2023-04-23T19:40:03.177Z,99.90
2023-04-23T19:42:30.059Z,99.90
2023-04-23T19:44:56.866Z,99.90
2023-04-23T19:47:23.995Z,99.90
2023-04-23T19:49:50.827Z,99.90
2023-04-23T19:52:26.485Z,99.90
2023-04-23T19:54:53.141Z,99.90
2023-04-23T19:57:21.338Z,99.90
2023-04-23T19:59:49.476Z,99.90
2023-04-23T20:02:16.830Z,99.90
2023-04-23T20:04:44.801Z,99.90
2023-04-23T20:07:11.941Z,99.90
2023-04-23T20:09:40.429Z,99.90
2023-04-23T20:12:07.678Z,99.90
2023-04-23T20:14:35.464Z,99.90
2023-04-23T20:17:02.495Z,99.90
2023-04-23T20:19:29.803Z,99.90
2023-04-23T20:21:56.592Z,99.90
2023-04-23T20:24:23.339Z,99.90
2023-04-23T20:26:51.420Z,99.90
2023-04-23T20:29:19.324Z,99.90
2023-04-23T20:31:46.803Z,99.90
2023-04-23T20:34:17.849Z,99.90
2023-04-23T20:36:45.904Z,99.90
2023-04-23T20:39:12.935Z,99.90
2023-04-23T20:41:40.944Z,99.90
2023-04-23T20:44:07.757Z,99.90
2023-04-23T20:46:36.454Z,99.90
2023-04-23T20:49:04.749Z,99.90
2023-04-23T20:51:32.648Z,99.90
2023-04-23T20:53:59.661Z,99.90
2023-04-23T20:56:26.374Z,99.90
2023-04-23T20:58:53.293Z,99.90
2023-04-23T21:01:20.086Z,99.90
2023-04-23T21:03:46.911Z,99.90
2023-04-23T21:06:13.680Z,99.90
2023-04-23T21:08:40.428Z,99.90
2023-04-23T21:11:09.569Z,99.90
2023-04-23T21:13:36.760Z,99.90
2023-04-23T21:16:03.762Z,99.90
2023-04-23T21:18:30.586Z,99.90
2023-04-23T21:20:57.999Z,99.90
2023-04-23T21:23:28.749Z,99.90
2023-04-23T21:25:57.629Z,99.90
2023-04-23T21:28:28.614Z,99.90
2023-04-23T21:31:00.727Z,99.90
2023-04-23T21:33:29.903Z,99.90
2023-04-23T21:35:58.155Z,99.90
2023-04-23T21:38:27.385Z,99.90
2023-04-23T21:40:55.183Z,99.90
2023-04-23T21:43:21.943Z,99.90
2023-04-23T21:45:48.614Z,99.90
2023-04-23T21:48:15.348Z,99.90
2023-04-23T21:50:42.104Z,99.90
2023-04-23T21:53:08.939Z,99.90
2023-04-23T21:55:35.901Z,99.90
2023-04-23T21:58:16.795Z,99.90
2023-04-23T22:00:45.168Z,99.90
2023-04-23T22:03:15.419Z,99.90
2023-04-23T22:05:48.996Z,99.90
2023-04-23T22:08:15.689Z,99.90
2023-04-23T22:10:42.386Z,99.90
2023-04-23T22:13:09.175Z,99.90
2023-04-23T22:15:35.938Z,99.90
2023-04-23T22:18:02.733Z,99.90
2023-04-23T22:20:29.627Z,99.90
2023-04-23T22:22:57.355Z,99.90
2023-04-23T22:25:26.438Z,99.90
2023-04-23T22:27:55.500Z,99.90
2023-04-23T22:30:22.730Z,99.90
2023-04-23T22:32:49.524Z,99.90
2023-04-23T22:35:16.805Z,99.90
2023-04-23T22:37:43.537Z,99.90
2023-04-23T22:40:10.656Z,99.90
2023-04-23T22:42:37.553Z,99.90
2023-04-23T22:45:04.760Z,99.90
2023-04-23T22:47:31.589Z,99.90
2023-04-23T22:49:58.419Z,99.90
2023-04-23T22:52:25.319Z,99.90
2023-04-23T22:54:52.033Z,99.90
2023-04-23T22:57:20.063Z,99.90
2023-04-23T22:59:46.733Z,99.90
2023-04-23T23:02:14.747Z,99.90
2023-04-23T23:04:42.674Z,99.90
2023-04-23T23:07:09.560Z,99.90
2023-04-23T23:09:40.043Z,99.90
2023-04-23T23:12:08.963Z,99.90
2023-04-23T23:14:35.736Z,99.90
2023-04-23T23:17:02.395Z,99.90
2023-04-23T23:19:29.153Z,99.90
2023-04-23T23:21:55.855Z,99.90
2023-04-23T23:24:22.958Z,99.90
2023-04-23T23:26:50.325Z,99.90
2023-04-23T23:29:17.245Z,99.90
2023-04-23T23:31:45.026Z,99.90
2023-04-23T23:34:12.986Z,99.90
2023-04-23T23:36:40.982Z,99.90
2023-04-23T23:39:07.715Z,99.90
2023-04-23T23:41:35.409Z,99.90
2023-04-23T23:44:03.369Z,99.90
2023-04-23T23:46:31.344Z,99.90
2023-04-23T23:48:58.079Z,99.90
2023-04-23T23:51:26.274Z,99.90
2023-04-23T23:53:52.919Z,99.90
2023-04-23T23:56:19.573Z,99.90
2023-04-23T23:58:46.261Z,99.90
